< < Back
Terminal Aerodrome Forecast


Current Version              Previous Versions:   1  2  3  4  5  6  7  8  9  

Terminal Aerodrome Forecast

847
FTUS42 KJAX 271700
TAFSSI
TAF
KSSI 271721Z 2718/2818 05012KT P6SM SKC
     FM280100 VRB04KT P6SM SKC
     FM281600 11008KT P6SM SKC=

Latest METAR

118
SAUS70 KWBC 280100 RRF
MTRSSI
METAR KSSI 280053Z AUTO 10004KT 10SM CLR 25/18 A3000 RMK AO2 SLP160
T02500178


USA.gov is the U.S. government's official web portal to all federal, state and local government web resources and services.